Time;durP1;ratioP1;P1;durP2;ratioP2;P2;SDS_P1;SDS_P2;PMS_P1;PMS_P2;Temp;Humidity;BMP_temperature;BMP_pressure;BME280_temperature;BME280_humidity;BME280_pressure;Samples;Min_cycle;Max_cycle;Signal;HPM_P1;HPM_P2
2022/12/17 15:09:21;;;;;;;50.83;14.48;;;;;;;-2.83;98.57;102365.94;5278063;23;20730;-80
2022/12/17 15:12:24;;;;;;;29.55;12.65;;;;;;;-2.81;99.44;102372.00;5043193;28;20252;-81
2022/12/17 17:41:01;;;;;;;27.98;14.95;;;;;;;-2.80;95.80;102476.19;4982660;28;20203;-81
2022/12/17 21:11:09;;;;;;;31.48;14.63;;;;;;;-3.26;96.58;102616.19;5122871;22;20242;-71
2022/12/17 21:13:38;;;;;;;30.20;12.20;;;;;;;-3.29;95.93;102618.97;5076340;28;20198;-71
2022/12/17 21:16:11;;;;;;;39.00;15.05;;;;;;;-3.31;97.22;102620.84;5076227;28;20196;-71
2022/12/17 21:18:40;;;;;;;26.50;14.38;;;;;;;-3.49;97.60;102620.84;5076055;28;20180;-69
2022/12/17 21:21:12;;;;;;;43.08;19.00;;;;;;;-3.21;98.16;102626.56;5056075;28;20730;-71
2022/12/17 21:26:43;;;;;;;36.05;12.65;;;;;;;-3.35;96.97;102626.34;4958229;28;20222;-66
2022/12/17 21:29:14;;;;;;;21.83;12.45;;;;;;;-3.45;96.64;102633.00;4977699;28;20183;-66
2022/12/17 21:31:47;;;;;;;22.77;14.88;;;;;;;-3.32;96.62;102647.38;4977555;28;20536;-68
2022/12/17 21:34:20;;;;;;;30.98;14.00;;;;;;;-3.29;95.29;102644.63;4983796;28;20317;-68
2022/12/17 21:36:50;;;;;;;35.70;14.50;;;;;;;-3.48;95.52;102643.69;4997580;28;20203;-66
2022/12/17 21:39:20;;;;;;;21.10;11.02;;;;;;;-3.51;95.51;102644.72;4993616;28;20188;-66
2022/12/17 21:44:38;;;;;;;27.48;12.93;;;;;;;-3.90;96.97;102646.47;4978192;28;20215;-68
2022/12/17 21:47:07;;;;;;;18.73;11.45;;;;;;;-3.98;97.46;102657.41;4984322;28;20277;-67
2022/12/17 21:49:36;;;;;;;31.45;13.80;;;;;;;-3.72;97.99;102657.13;4997325;28;20554;-66
2022/12/17 21:52:05;;;;;;;25.20;12.25;;;;;;;-3.82;97.72;102660.22;4982947;28;20622;-67
2022/12/17 21:54:37;;;;;;;41.38;16.15;;;;;;;-3.97;97.86;102664.44;4997323;28;20214;-68
2022/12/17 21:57:08;;;;;;;19.58;11.45;;;;;;;-4.00;97.23;102662.75;4997810;28;20625;-65
2022/12/17 21:59:37;;;;;;;23.58;12.88;;;;;;;-4.08;98.11;102662.22;4992278;28;20247;-67
2022/12/17 22:02:06;;;;;;;39.85;13.95;;;;;;;-3.85;98.79;102660.38;4977424;28;20204;-66
2022/12/17 22:04:36;;;;;;;27.88;15.23;;;;;;;-3.99;97.66;102667.13;4976475;28;20203;-67
2022/12/17 22:07:05;;;;;;;29.65;14.95;;;;;;;-2.63;100.00;102667.91;4980672;28;20306;-68
2022/12/17 22:10:11;;;;;;;23.50;10.23;;;;;;;-3.30;98.61;102675.53;4981527;28;20282;-68
2022/12/17 22:15:48;;;;;;;34.17;12.25;;;;;;;-3.86;96.06;102669.22;4996467;28;20257;-68
2022/12/17 22:18:21;;;;;;;19.75;12.40;;;;;;;-4.02;96.99;102671.69;4960734;28;20294;-68
2022/12/17 22:20:58;;;;;;;22.50;9.90;;;;;;;-4.00;96.42;102677.75;4964589;28;20250;-68
2022/12/17 22:23:27;;;;;;;27.50;15.70;;;;;;;-3.85;96.88;102681.53;4991985;28;20210;-66
2022/12/17 22:25:57;;;;;;;21.45;9.48;;;;;;;-3.96;95.33;102690.78;4989294;28;20301;-69
2022/12/17 22:28:27;;;;;;;24.67;11.65;;;;;;;-4.12;95.85;102684.44;4996375;28;20245;-67
2022/12/17 22:34:25;;;;;;;31.90;14.80;;;;;;;-4.41;97.08;102692.72;4917640;29;20810;-66
2022/12/17 22:37:14;;;;;;;20.75;9.57;;;;;;;-4.42;97.73;102698.91;4990198;28;20233;-66
2022/12/17 22:40:04;;;;;;;27.27;11.57;;;;;;;-4.44;97.86;102698.09;4996592;28;20289;-68
2022/12/17 22:46:02;;;;;;;26.40;12.00;;;;;;;-4.29;98.90;102700.13;4984998;28;20209;-66
2022/12/17 22:48:34;;;;;;;23.73;9.93;;;;;;;-4.28;98.22;102712.44;4997442;28;20679;-68
2022/12/17 22:51:09;;;;;;;19.83;11.30;;;;;;;-4.43;98.45;102713.06;4998793;28;20175;-69
2022/12/17 22:53:43;;;;;;;19.95;12.40;;;;;;;-4.43;98.88;102718.34;4982171;28;20726;-68
2022/12/17 22:56:12;;;;;;;29.65;12.05;;;;;;;-4.38;99.58;102719.88;4990998;28;20231;-69
2022/12/17 22:59:01;;;;;;;23.20;13.30;;;;;;;-4.16;99.54;102719.84;4988795;28;20739;-70
2022/12/17 23:01:32;;;;;;;26.20;16.85;;;;;;;-4.07;97.77;102724.78;4998456;28;20391;-67
2022/12/17 23:04:03;;;;;;;25.58;10.75;;;;;;;-4.02;97.39;102722.78;4978740;28;20223;-68
2022/12/17 23:06:32;;;;;;;24.17;12.65;;;;;;;-4.02;96.58;102728.06;4965814;28;20234;-68
2022/12/17 23:09:01;;;;;;;21.13;14.10;;;;;;;-4.25;96.52;102730.81;4979032;28;20179;-69
2022/12/17 23:11:30;;;;;;;29.33;12.05;;;;;;;-4.42;96.81;102734.16;4978852;28;20199;-67
2022/12/17 23:13:59;;;;;;;17.88;10.30;;;;;;;-4.41;97.64;102730.59;4998345;28;20214;-67
2022/12/17 23:16:55;;;;;;;26.85;11.52;;;;;;;-4.40;97.35;102736.69;4996661;28;20344;-67
2022/12/17 23:19:25;;;;;;;17.17;10.18;;;;;;;-4.30;97.44;102732.78;4997508;28;20199;-68
2022/12/17 23:21:54;;;;;;;24.52;14.20;;;;;;;-4.37;96.95;102731.31;4985381;28;20278;-67
2022/12/17 23:24:23;;;;;;;24.35;12.90;;;;;;;-4.49;96.13;102737.94;4990275;28;20238;-68
2022/12/17 23:26:52;;;;;;;25.73;13.38;;;;;;;-4.52;96.96;102732.78;4991689;28;20289;-67
2022/12/17 23:29:21;;;;;;;35.42;11.85;;;;;;;-4.36;97.50;102733.03;4995104;28;20200;-67
2022/12/17 23:31:51;;;;;;;21.33;11.75;;;;;;;-4.18;97.51;102742.84;4994765;28;20222;-67
2022/12/17 23:34:21;;;;;;;17.10;13.05;;;;;;;-4.12;96.51;102747.03;4999116;28;20706;-67
2022/12/17 23:36:52;;;;;;;15.45;9.02;;;;;;;-4.13;96.54;102740.03;5001927;28;20234;-68
2022/12/17 23:39:21;;;;;;;40.70;12.73;;;;;;;-4.20;96.19;102730.59;4966283;29;20267;-68
2022/12/17 23:41:50;;;;;;;17.27;8.60;;;;;;;-4.18;96.86;102734.94;4979907;28;20199;-67
2022/12/17 23:44:19;;;;;;;19.33;11.35;;;;;;;-4.38;96.53;102735.72;4987689;28;20218;-67
2022/12/17 23:47:44;;;;;;;24.92;9.82;;;;;;;-4.44;96.27;102735.09;4998261;28;20241;-69
2022/12/17 23:50:14;;;;;;;38.40;11.52;;;;;;;-4.22;96.46;102735.97;5000798;28;20262;-68
2022/12/17 23:52:43;;;;;;;24.20;12.80;;;;;;;-4.11;95.39;102739.03;4993376;28;20184;-67
2022/12/17 23:55:12;;;;;;;27.98;11.38;;;;;;;-4.44;95.29;102735.09;4978226;28;20229;-67
2022/12/17 23:57:42;;;;;;;26.52;10.70;;;;;;;-4.36;95.96;102746.25;4977193;28;20184;-66
